sensor_id;sensor_type;location;lat;lon;timestamp;pressure;altitude;pressure_sealevel;temperature;humidity
30343;BME280;17145;49.902;8.680;2022-08-11T00:01:20;100585.44;;;23.56;34.78
30343;BME280;17145;49.902;8.680;2022-08-11T00:03:53;100584.28;;;23.54;34.97
30343;BME280;17145;49.902;8.680;2022-08-11T00:06:24;100583.67;;;23.53;35.22
30343;BME280;17145;49.902;8.680;2022-08-11T00:08:53;100582.79;;;23.47;35.29
30343;BME280;17145;49.902;8.680;2022-08-11T00:11:21;100580.19;;;23.46;35.21
30343;BME280;17145;49.902;8.680;2022-08-11T00:13:55;100579.20;;;23.45;35.15
30343;BME280;17145;49.902;8.680;2022-08-11T00:16:24;100577.60;;;23.43;35.32
30343;BME280;17145;49.902;8.680;2022-08-11T00:18:55;100573.95;;;23.40;35.09
30343;BME280;17145;49.902;8.680;2022-08-11T00:21:25;100576.11;;;23.38;35.10
30343;BME280;17145;49.902;8.680;2022-08-11T00:23:56;100577.05;;;23.36;34.76
30343;BME280;17145;49.902;8.680;2022-08-11T00:26:25;100575.12;;;23.34;34.68
30343;BME280;17145;49.902;8.680;2022-08-11T00:28:53;100572.08;;;23.33;34.69
30343;BME280;17145;49.902;8.680;2022-08-11T00:31:27;100578.27;;;23.32;34.51
30343;BME280;17145;49.902;8.680;2022-08-11T00:33:56;100577.22;;;23.29;34.72
30343;BME280;17145;49.902;8.680;2022-08-11T00:36:27;100575.67;;;23.26;34.70
30343;BME280;17145;49.902;8.680;2022-08-11T00:39:02;100576.67;;;23.24;34.89
30343;BME280;17145;49.902;8.680;2022-08-11T00:41:33;100578.82;;;23.20;35.02
30343;BME280;17145;49.902;8.680;2022-08-11T00:44:18;100577.66;;;23.14;35.20
30343;BME280;17145;49.902;8.680;2022-08-11T00:46:58;100577.22;;;23.13;35.26
30343;BME280;17145;49.902;8.680;2022-08-11T00:49:38;100574.62;;;23.10;35.60
30343;BME280;17145;49.902;8.680;2022-08-11T00:52:28;100575.28;;;23.08;35.45
30343;BME280;17145;49.902;8.680;2022-08-11T00:55:05;100571.25;;;23.03;35.76
30343;BME280;17145;49.902;8.680;2022-08-11T01:00:16;100574.77;;;22.90;36.05
30343;BME280;17145;49.902;8.680;2022-08-11T01:02:58;100573.11;;;22.85;36.16
30343;BME280;17145;49.902;8.680;2022-08-11T01:05:46;100568.57;;;22.78;36.31
30343;BME280;17145;49.902;8.680;2022-08-11T01:08:41;100570.00;;;22.74;36.43
30343;BME280;17145;49.902;8.680;2022-08-11T01:11:25;100574.74;;;22.69;36.32
30343;BME280;17145;49.902;8.680;2022-08-11T01:14:19;100576.66;;;22.65;36.59
30343;BME280;17145;49.902;8.680;2022-08-11T01:17:04;100583.61;;;22.61;36.69
30343;BME280;17145;49.902;8.680;2022-08-11T01:19:49;100584.15;;;22.57;37.06
30343;BME280;17145;49.902;8.680;2022-08-11T01:22:33;100587.33;;;22.50;37.05
30343;BME280;17145;49.902;8.680;2022-08-11T01:41:27;100595.25;;;22.26;37.43
30343;BME280;17145;49.902;8.680;2022-08-11T01:44:12;100598.04;;;22.22;37.47
30343;BME280;17145;49.902;8.680;2022-08-11T01:46:46;100599.52;;;22.19;37.50
30343;BME280;17145;49.902;8.680;2022-08-11T01:49:24;100595.14;;;22.14;37.54
30343;BME280;17145;49.902;8.680;2022-08-11T01:52:03;100593.68;;;22.09;37.56
30343;BME280;17145;49.902;8.680;2022-08-11T01:54:40;100590.80;;;22.07;37.58
30343;BME280;17145;49.902;8.680;2022-08-11T01:57:19;100593.55;;;22.05;37.77
30343;BME280;17145;49.902;8.680;2022-08-11T01:59:55;100591.11;;;22.03;37.82
30343;BME280;17145;49.902;8.680;2022-08-11T02:02:34;100592.70;;;22.01;37.94
30343;BME280;17145;49.902;8.680;2022-08-11T02:05:13;100594.99;;;21.97;38.29
30343;BME280;17145;49.902;8.680;2022-08-11T02:07:54;100595.85;;;21.92;38.30
30343;BME280;17145;49.902;8.680;2022-08-11T02:10:26;100596.93;;;21.88;38.43
30343;BME280;17145;49.902;8.680;2022-08-11T02:13:02;100598.45;;;21.85;38.55
30343;BME280;17145;49.902;8.680;2022-08-11T02:15:37;100600.57;;;21.79;38.77
30343;BME280;17145;49.902;8.680;2022-08-11T02:18:12;100596.84;;;21.73;38.77
30343;BME280;17145;49.902;8.680;2022-08-11T02:20:47;100599.36;;;21.70;38.96
30343;BME280;17145;49.902;8.680;2022-08-11T02:23:25;100597.24;;;21.67;39.05
30343;BME280;17145;49.902;8.680;2022-08-11T02:25:58;100601.95;;;21.62;39.51
30343;BME280;17145;49.902;8.680;2022-08-11T02:28:34;100600.37;;;21.58;39.71
30343;BME280;17145;49.902;8.680;2022-08-11T02:31:12;100602.04;;;21.52;39.95
30343;BME280;17145;49.902;8.680;2022-08-11T02:33:41;100599.73;;;21.45;40.06
30343;BME280;17145;49.902;8.680;2022-08-11T02:36:13;100598.70;;;21.41;40.26
30343;BME280;17145;49.902;8.680;2022-08-11T02:38:48;100600.49;;;21.36;40.43
30343;BME280;17145;49.902;8.680;2022-08-11T02:41:24;100598.41;;;21.31;40.39
30343;BME280;17145;49.902;8.680;2022-08-11T02:44:02;100595.66;;;21.25;40.35
30343;BME280;17145;49.902;8.680;2022-08-11T02:46:52;100593.57;;;21.20;40.47
30343;BME280;17145;49.902;8.680;2022-08-11T02:49:25;100593.78;;;21.18;40.48
30343;BME280;17145;49.902;8.680;2022-08-11T02:52:02;100592.44;;;21.16;40.40
30343;BME280;17145;49.902;8.680;2022-08-11T02:54:37;100591.37;;;21.13;40.46
30343;BME280;17145;49.902;8.680;2022-08-11T02:57:15;100593.61;;;21.11;40.53
30343;BME280;17145;49.902;8.680;2022-08-11T02:59:50;100592.87;;;21.08;40.51
30343;BME280;17145;49.902;8.680;2022-08-11T03:02:31;100590.51;;;21.04;40.70
30343;BME280;17145;49.902;8.680;2022-08-11T03:05:06;100588.50;;;21.00;40.82
30343;BME280;17145;49.902;8.680;2022-08-11T03:07:46;100588.58;;;20.97;40.75
30343;BME280;17145;49.902;8.680;2022-08-11T03:10:19;100589.42;;;20.93;40.69
30343;BME280;17145;49.902;8.680;2022-08-11T03:12:52;100590.82;;;20.89;40.73
30343;BME280;17145;49.902;8.680;2022-08-11T03:15:28;100592.05;;;20.86;40.90
30343;BME280;17145;49.902;8.680;2022-08-11T03:18:03;100593.63;;;20.85;41.04
30343;BME280;17145;49.902;8.680;2022-08-11T03:20:41;100596.32;;;20.83;41.14
30343;BME280;17145;49.902;8.680;2022-08-11T03:23:17;100596.95;;;20.80;41.18
30343;BME280;17145;49.902;8.680;2022-08-11T03:25:53;100594.06;;;20.78;41.20
30343;BME280;17145;49.902;8.680;2022-08-11T03:28:33;100594.76;;;20.76;41.32
30343;BME280;17145;49.902;8.680;2022-08-11T03:31:17;100594.34;;;20.73;41.40
30343;BME280;17145;49.902;8.680;2022-08-11T03:33:49;100595.34;;;20.69;41.48
30343;BME280;17145;49.902;8.680;2022-08-11T03:39:08;100597.70;;;20.58;41.87
30343;BME280;17145;49.902;8.680;2022-08-11T03:41:43;100598.89;;;20.51;42.31
30343;BME280;17145;49.902;8.680;2022-08-11T03:44:24;100602.62;;;20.46;41.95
30343;BME280;17145;49.902;8.680;2022-08-11T03:47:05;100602.13;;;20.41;42.21
30343;BME280;17145;49.902;8.680;2022-08-11T03:49:44;100605.04;;;20.36;42.79
30343;BME280;17145;49.902;8.680;2022-08-11T03:52:25;100611.77;;;20.33;42.54
30343;BME280;17145;49.902;8.680;2022-08-11T03:55:02;100613.30;;;20.28;42.57
30343;BME280;17145;49.902;8.680;2022-08-11T03:57:45;100621.01;;;20.24;43.04
30343;BME280;17145;49.902;8.680;2022-08-11T04:03:12;100624.00;;;20.13;43.49
30343;BME280;17145;49.902;8.680;2022-08-11T04:11:17;100618.06;;;20.09;43.12
30343;BME280;17145;49.902;8.680;2022-08-11T04:14:12;100617.87;;;20.07;43.21
30343;BME280;17145;49.902;8.680;2022-08-11T04:16:46;100617.43;;;20.07;43.09
30343;BME280;17145;49.902;8.680;2022-08-11T04:22:22;100622.32;;;20.03;43.31
30343;BME280;17145;49.902;8.680;2022-08-11T04:25:14;100622.30;;;20.02;43.11
30343;BME280;17145;49.902;8.680;2022-08-11T04:30:43;100617.96;;;19.94;43.69
30343;BME280;17145;49.902;8.680;2022-08-11T04:33:32;100618.68;;;19.90;43.58
30343;BME280;17145;49.902;8.680;2022-08-11T04:36:09;100619.08;;;19.88;43.63
30343;BME280;17145;49.902;8.680;2022-08-11T04:38:57;100618.44;;;19.89;43.71
30343;BME280;17145;49.902;8.680;2022-08-11T04:44:25;100617.48;;;19.91;44.00
30343;BME280;17145;49.902;8.680;2022-08-11T04:47:07;100614.35;;;19.95;44.11
30343;BME280;17145;49.902;8.680;2022-08-11T04:49:54;100614.42;;;20.01;44.53
30343;BME280;17145;49.902;8.680;2022-08-11T04:52:37;100614.27;;;20.05;44.10
30343;BME280;17145;49.902;8.680;2022-08-11T04:55:19;100614.99;;;20.10;44.08
30343;BME280;17145;49.902;8.680;2022-08-11T04:57:57;100616.28;;;20.16;44.00
30343;BME280;17145;49.902;8.680;2022-08-11T05:00:29;100617.65;;;20.19;44.02
30343;BME280;17145;49.902;8.680;2022-08-11T05:03:20;100616.05;;;20.24;44.15
30343;BME280;17145;49.902;8.680;2022-08-11T05:06:06;100617.75;;;20.28;43.93
30343;BME280;17145;49.902;8.680;2022-08-11T05:08:49;100619.35;;;20.32;43.98
30343;BME280;17145;49.902;8.680;2022-08-11T05:11:31;100620.31;;;20.34;44.12
30343;BME280;17145;49.902;8.680;2022-08-11T05:16:49;100622.27;;;20.41;44.44
30343;BME280;17145;49.902;8.680;2022-08-11T05:19:19;100620.93;;;20.44;44.44
30343;BME280;17145;49.902;8.680;2022-08-11T05:21:53;100624.73;;;20.50;44.82
30343;BME280;17145;49.902;8.680;2022-08-11T05:24:24;100626.91;;;20.56;44.61
30343;BME280;17145;49.902;8.680;2022-08-11T05:26:54;100628.19;;;20.62;44.66
30343;BME280;17145;49.902;8.680;2022-08-11T05:29:27;100623.60;;;20.70;44.29
30343;BME280;17145;49.902;8.680;2022-08-11T05:32:00;100623.67;;;20.77;44.73
30343;BME280;17145;49.902;8.680;2022-08-11T05:34:39;100628.75;;;20.83;44.72
30343;BME280;17145;49.902;8.680;2022-08-11T05:37:08;100633.00;;;20.90;45.09
30343;BME280;17145;49.902;8.680;2022-08-11T05:39:44;100635.22;;;20.96;44.84
30343;BME280;17145;49.902;8.680;2022-08-11T05:42:16;100639.45;;;21.01;44.69
30343;BME280;17145;49.902;8.680;2022-08-11T05:44:46;100638.98;;;21.09;44.67
30343;BME280;17145;49.902;8.680;2022-08-11T05:47:20;100639.65;;;21.16;44.42
30343;BME280;17145;49.902;8.680;2022-08-11T05:49:59;100639.45;;;21.24;44.14
30343;BME280;17145;49.902;8.680;2022-08-11T05:52:30;100644.04;;;21.32;44.06
30343;BME280;17145;49.902;8.680;2022-08-11T05:55:02;100643.56;;;21.40;43.96
30343;BME280;17145;49.902;8.680;2022-08-11T05:57:34;100647.32;;;21.48;43.30
30343;BME280;17145;49.902;8.680;2022-08-11T06:00:11;100651.69;;;21.56;43.33
30343;BME280;17145;49.902;8.680;2022-08-11T06:02:41;100650.54;;;21.65;42.71
30343;BME280;17145;49.902;8.680;2022-08-11T06:05:11;100649.73;;;21.74;43.30
30343;BME280;17145;49.902;8.680;2022-08-11T06:07:40;100647.74;;;21.82;41.78
30343;BME280;17145;49.902;8.680;2022-08-11T06:10:08;100647.57;;;21.89;40.98
30343;BME280;17145;49.902;8.680;2022-08-11T06:12:37;100643.99;;;21.99;41.82
30343;BME280;17145;49.902;8.680;2022-08-11T06:15:07;100642.65;;;22.06;41.51
30343;BME280;17145;49.902;8.680;2022-08-11T06:17:42;100642.93;;;22.17;41.56
30343;BME280;17145;49.902;8.680;2022-08-11T06:20:13;100641.89;;;22.28;41.18
30343;BME280;17145;49.902;8.680;2022-08-11T06:22:47;100640.77;;;22.37;40.85
30343;BME280;17145;49.902;8.680;2022-08-11T06:25:21;100641.80;;;22.46;40.00
30343;BME280;17145;49.902;8.680;2022-08-11T06:27:54;100641.57;;;22.57;39.79
30343;BME280;17145;49.902;8.680;2022-08-11T06:30:32;100640.67;;;22.68;39.11
30343;BME280;17145;49.902;8.680;2022-08-11T06:33:07;100640.20;;;22.79;39.12
30343;BME280;17145;49.902;8.680;2022-08-11T06:35:45;100643.94;;;22.91;39.65
30343;BME280;17145;49.902;8.680;2022-08-11T06:38:26;100640.92;;;23.01;38.61
30343;BME280;17145;49.902;8.680;2022-08-11T06:40:58;100638.55;;;23.04;38.48
30343;BME280;17145;49.902;8.680;2022-08-11T06:43:31;100639.17;;;23.14;37.90
30343;BME280;17145;49.902;8.680;2022-08-11T06:46:07;100639.13;;;23.24;38.15
30343;BME280;17145;49.902;8.680;2022-08-11T06:48:38;100640.68;;;23.34;37.85
30343;BME280;17145;49.902;8.680;2022-08-11T06:51:08;100642.67;;;23.42;37.68
30343;BME280;17145;49.902;8.680;2022-08-11T06:53:42;100642.62;;;23.55;37.70
30343;BME280;17145;49.902;8.680;2022-08-11T06:56:10;100640.18;;;23.65;37.47
30343;BME280;17145;49.902;8.680;2022-08-11T06:58:40;100638.07;;;23.73;36.99
30343;BME280;17145;49.902;8.680;2022-08-11T07:01:11;100637.78;;;23.81;36.82
30343;BME280;17145;49.902;8.680;2022-08-11T07:03:42;100637.49;;;23.91;36.82
30343;BME280;17145;49.902;8.680;2022-08-11T07:06:24;100634.54;;;23.98;36.43
30343;BME280;17145;49.902;8.680;2022-08-11T07:09:13;100632.37;;;24.04;36.11
30343;BME280;17145;49.902;8.680;2022-08-11T07:11:58;100637.39;;;24.11;35.92
30343;BME280;17145;49.902;8.680;2022-08-11T07:14:29;100638.29;;;24.21;35.76
30343;BME280;17145;49.902;8.680;2022-08-11T07:16:58;100640.43;;;24.28;35.72
30343;BME280;17145;49.902;8.680;2022-08-11T07:19:28;100639.65;;;24.29;35.66
30343;BME280;17145;49.902;8.680;2022-08-11T07:21:59;100639.83;;;24.41;35.69
30343;BME280;17145;49.902;8.680;2022-08-11T07:24:33;100638.74;;;24.50;35.45
30343;BME280;17145;49.902;8.680;2022-08-11T07:27:05;100639.31;;;24.59;35.52
30343;BME280;17145;49.902;8.680;2022-08-11T07:29:34;100632.87;;;24.71;35.46
30343;BME280;17145;49.902;8.680;2022-08-11T07:32:13;100633.80;;;24.84;35.22
30343;BME280;17145;49.902;8.680;2022-08-11T07:34:47;100630.98;;;24.93;35.01
30343;BME280;17145;49.902;8.680;2022-08-11T07:37:17;100627.91;;;25.04;35.03
30343;BME280;17145;49.902;8.680;2022-08-11T07:39:47;100625.58;;;25.12;34.62
30343;BME280;17145;49.902;8.680;2022-08-11T07:42:19;100625.46;;;25.22;34.56
30343;BME280;17145;49.902;8.680;2022-08-11T07:44:48;100628.36;;;25.33;34.67
30343;BME280;17145;49.902;8.680;2022-08-11T07:47:16;100625.84;;;25.43;34.24
30343;BME280;17145;49.902;8.680;2022-08-11T07:49:45;100628.32;;;25.51;34.13
30343;BME280;17145;49.902;8.680;2022-08-11T07:52:15;100627.23;;;25.61;33.81
30343;BME280;17145;49.902;8.680;2022-08-11T07:54:44;100626.59;;;25.65;33.52
30343;BME280;17145;49.902;8.680;2022-08-11T07:57:11;100626.70;;;25.71;33.35
30343;BME280;17145;49.902;8.680;2022-08-11T07:59:39;100619.53;;;25.77;33.23
30343;BME280;17145;49.902;8.680;2022-08-11T08:02:08;100620.67;;;25.86;33.38
30343;BME280;17145;49.902;8.680;2022-08-11T08:04:39;100623.70;;;25.93;33.36
30343;BME280;17145;49.902;8.680;2022-08-11T08:07:07;100623.28;;;26.01;33.06
30343;BME280;17145;49.902;8.680;2022-08-11T08:09:36;100621.34;;;26.06;33.29
30343;BME280;17145;49.902;8.680;2022-08-11T08:12:05;100623.09;;;26.13;33.03
30343;BME280;17145;49.902;8.680;2022-08-11T08:14:35;100623.00;;;26.21;32.77
30343;BME280;17145;49.902;8.680;2022-08-11T08:17:03;100624.30;;;26.24;32.62
30343;BME280;17145;49.902;8.680;2022-08-11T08:19:31;100622.75;;;26.32;32.89
30343;BME280;17145;49.902;8.680;2022-08-11T08:21:59;100621.24;;;26.42;32.47
30343;BME280;17145;49.902;8.680;2022-08-11T08:24:28;100622.02;;;26.51;32.37
30343;BME280;17145;49.902;8.680;2022-08-11T08:26:57;100626.04;;;26.62;32.90
30343;BME280;17145;49.902;8.680;2022-08-11T08:29:30;100624.38;;;26.70;32.43
30343;BME280;17145;49.902;8.680;2022-08-11T08:32:00;100623.85;;;26.80;32.48
30343;BME280;17145;49.902;8.680;2022-08-11T08:34:31;100621.15;;;26.89;32.15
30343;BME280;17145;49.902;8.680;2022-08-11T08:36:59;100621.87;;;27.01;32.83
30343;BME280;17145;49.902;8.680;2022-08-11T08:39:27;100621.52;;;27.09;31.67
30343;BME280;17145;49.902;8.680;2022-08-11T08:41:56;100614.07;;;27.23;31.68
30343;BME280;17145;49.902;8.680;2022-08-11T08:44:26;100616.80;;;27.33;31.34
30343;BME280;17145;49.902;8.680;2022-08-11T08:46:56;100620.22;;;27.48;31.74
30343;BME280;17145;49.902;8.680;2022-08-11T08:49:31;100622.20;;;27.59;31.47
30343;BME280;17145;49.902;8.680;2022-08-11T08:52:02;100621.06;;;27.73;31.14
30343;BME280;17145;49.902;8.680;2022-08-11T08:54:35;100623.27;;;27.89;30.59
30343;BME280;17145;49.902;8.680;2022-08-11T08:57:05;100618.85;;;28.02;30.61
30343;BME280;17145;49.902;8.680;2022-08-11T08:59:39;100612.93;;;28.03;30.01
30343;BME280;17145;49.902;8.680;2022-08-11T09:02:08;100617.36;;;28.10;30.54
30343;BME280;17145;49.902;8.680;2022-08-11T09:04:36;100622.21;;;28.20;30.30
30343;BME280;17145;49.902;8.680;2022-08-11T09:07:08;100614.16;;;28.30;29.64
30343;BME280;17145;49.902;8.680;2022-08-11T09:09:36;100615.48;;;28.39;29.34
30343;BME280;17145;49.902;8.680;2022-08-11T09:12:06;100610.86;;;28.47;28.84
30343;BME280;17145;49.902;8.680;2022-08-11T09:14:36;100599.15;;;28.55;29.09
30343;BME280;17145;49.902;8.680;2022-08-11T09:17:04;100604.03;;;28.66;28.95
30343;BME280;17145;49.902;8.680;2022-08-11T09:19:32;100602.20;;;28.78;28.81
30343;BME280;17145;49.902;8.680;2022-08-11T09:22:00;100598.87;;;28.89;28.04
30343;BME280;17145;49.902;8.680;2022-08-11T09:24:28;100598.16;;;28.98;28.34
30343;BME280;17145;49.902;8.680;2022-08-11T09:26:56;100595.96;;;29.11;27.69
30343;BME280;17145;49.902;8.680;2022-08-11T09:29:26;100596.14;;;29.21;27.74
30343;BME280;17145;49.902;8.680;2022-08-11T09:31:53;100593.65;;;29.32;27.72
30343;BME280;17145;49.902;8.680;2022-08-11T09:34:23;100590.60;;;29.40;28.00
30343;BME280;17145;49.902;8.680;2022-08-11T09:36:52;100592.45;;;29.50;26.76
30343;BME280;17145;49.902;8.680;2022-08-11T09:39:20;100587.91;;;29.57;26.44
30343;BME280;17145;49.902;8.680;2022-08-11T09:41:48;100590.12;;;29.67;26.70
30343;BME280;17145;49.902;8.680;2022-08-11T09:44:17;100587.57;;;29.80;26.76
30343;BME280;17145;49.902;8.680;2022-08-11T09:46:46;100590.45;;;29.91;26.68
30343;BME280;17145;49.902;8.680;2022-08-11T09:49:19;100583.28;;;30.00;25.41
30343;BME280;17145;49.902;8.680;2022-08-11T09:51:47;100588.36;;;30.12;26.03
30343;BME280;17145;49.902;8.680;2022-08-11T09:54:17;100586.65;;;30.07;24.74
30343;BME280;17145;49.902;8.680;2022-08-11T09:56:45;100576.82;;;30.11;24.84
30343;BME280;17145;49.902;8.680;2022-08-11T09:59:13;100578.00;;;30.17;25.52
30343;BME280;17145;49.902;8.680;2022-08-11T10:01:45;100578.03;;;30.29;26.03
30343;BME280;17145;49.902;8.680;2022-08-11T10:04:15;100581.93;;;30.35;26.09
30343;BME280;17145;49.902;8.680;2022-08-11T10:06:48;100583.34;;;30.46;25.53
30343;BME280;17145;49.902;8.680;2022-08-11T10:09:19;100572.38;;;30.64;25.20
30343;BME280;17145;49.902;8.680;2022-08-11T10:11:48;100568.30;;;30.78;25.00
30343;BME280;17145;49.902;8.680;2022-08-11T10:14:17;100564.52;;;30.96;25.47
30343;BME280;17145;49.902;8.680;2022-08-11T10:16:46;100561.34;;;31.18;24.86
30343;BME280;17145;49.902;8.680;2022-08-11T10:19:16;100553.88;;;31.35;24.25
30343;BME280;17145;49.902;8.680;2022-08-11T10:24:26;100566.63;;;31.63;24.29
30343;BME280;17145;49.902;8.680;2022-08-11T10:26:55;100558.72;;;31.71;22.99
30343;BME280;17145;49.902;8.680;2022-08-11T10:29:26;100548.42;;;31.80;22.98
30343;BME280;17145;49.902;8.680;2022-08-11T10:31:55;100539.52;;;31.86;22.13
30343;BME280;17145;49.902;8.680;2022-08-11T10:34:23;100551.15;;;31.97;22.20
30343;BME280;17145;49.902;8.680;2022-08-11T10:36:51;100554.77;;;32.11;21.89
30343;BME280;17145;49.902;8.680;2022-08-11T10:39:21;100539.11;;;32.19;21.41
30343;BME280;17145;49.902;8.680;2022-08-11T10:41:49;100530.28;;;32.26;21.93
30343;BME280;17145;49.902;8.680;2022-08-11T10:44:18;100522.25;;;32.32;21.20
30343;BME280;17145;49.902;8.680;2022-08-11T10:46:46;100526.75;;;32.37;21.47
30343;BME280;17145;49.902;8.680;2022-08-11T10:49:14;100522.60;;;32.53;20.83
30343;BME280;17145;49.902;8.680;2022-08-11T10:51:44;100524.99;;;32.59;20.60
30343;BME280;17145;49.902;8.680;2022-08-11T10:54:14;100522.92;;;32.56;20.18
30343;BME280;17145;49.902;8.680;2022-08-11T10:56:42;100511.70;;;32.62;20.73
30343;BME280;17145;49.902;8.680;2022-08-11T10:59:09;100511.90;;;32.70;20.81
30343;BME280;17145;49.902;8.680;2022-08-11T11:01:40;100514.55;;;32.81;21.09
30343;BME280;17145;49.902;8.680;2022-08-11T11:04:13;100510.81;;;32.89;20.15
30343;BME280;17145;49.902;8.680;2022-08-11T11:06:49;100504.29;;;32.93;20.82
30343;BME280;17145;49.902;8.680;2022-08-11T11:09:24;100493.72;;;33.04;20.75
30343;BME280;17145;49.902;8.680;2022-08-11T11:11:59;100489.11;;;33.15;20.71
30343;BME280;17145;49.902;8.680;2022-08-11T11:14:31;100486.65;;;33.24;20.99
30343;BME280;17145;49.902;8.680;2022-08-11T11:17:02;100494.31;;;33.37;20.84
30343;BME280;17145;49.902;8.680;2022-08-11T11:19:34;100486.32;;;33.50;20.52
30343;BME280;17145;49.902;8.680;2022-08-11T11:22:06;100486.63;;;33.64;20.33
30343;BME280;17145;49.902;8.680;2022-08-11T11:24:41;100489.67;;;33.77;20.11
30343;BME280;17145;49.902;8.680;2022-08-11T11:27:24;100478.88;;;33.88;19.65
30343;BME280;17145;49.902;8.680;2022-08-11T11:30:02;100468.97;;;33.96;19.07
30343;BME280;17145;49.902;8.680;2022-08-11T11:32:38;100464.77;;;34.08;19.67
30343;BME280;17145;49.902;8.680;2022-08-11T11:35:24;100469.20;;;34.20;19.89
30343;BME280;17145;49.902;8.680;2022-08-11T11:37:54;100466.85;;;34.35;19.45
30343;BME280;17145;49.902;8.680;2022-08-11T11:40:23;100457.70;;;34.39;19.17
30343;BME280;17145;49.902;8.680;2022-08-11T11:42:55;100456.75;;;34.32;19.11
30343;BME280;17145;49.902;8.680;2022-08-11T11:45:24;100452.98;;;34.43;19.40
30343;BME280;17145;49.902;8.680;2022-08-11T11:47:54;100453.83;;;34.57;19.15
30343;BME280;17145;49.902;8.680;2022-08-11T11:50:24;100455.56;;;34.72;19.15
30343;BME280;17145;49.902;8.680;2022-08-11T11:52:54;100442.38;;;34.84;18.21
30343;BME280;17145;49.902;8.680;2022-08-11T11:55:23;100441.84;;;34.97;18.46
30343;BME280;17145;49.902;8.680;2022-08-11T11:57:53;100436.40;;;35.11;18.59
30343;BME280;17145;49.902;8.680;2022-08-11T12:00:21;100433.26;;;35.22;18.40
30343;BME280;17145;49.902;8.680;2022-08-11T12:02:50;100421.05;;;35.02;17.58
30343;BME280;17145;49.902;8.680;2022-08-11T12:05:18;100417.67;;;34.96;18.66
30343;BME280;17145;49.902;8.680;2022-08-11T12:07:47;100420.99;;;35.10;18.19
30343;BME280;17145;49.902;8.680;2022-08-11T12:10:16;100422.15;;;35.31;17.69
30343;BME280;17145;49.902;8.680;2022-08-11T12:12:44;100423.63;;;35.51;17.49
30343;BME280;17145;49.902;8.680;2022-08-11T12:15:13;100411.10;;;35.66;17.76
30343;BME280;17145;49.902;8.680;2022-08-11T12:17:41;100416.78;;;35.84;17.19
30343;BME280;17145;49.902;8.680;2022-08-11T12:20:09;100401.30;;;35.91;17.22
30343;BME280;17145;49.902;8.680;2022-08-11T12:22:37;100400.19;;;36.01;17.48
30343;BME280;17145;49.902;8.680;2022-08-11T12:25:05;100399.99;;;36.22;17.59
30343;BME280;17145;49.902;8.680;2022-08-11T12:27:33;100397.93;;;36.33;16.80
30343;BME280;17145;49.902;8.680;2022-08-11T12:30:03;100403.18;;;36.51;16.71
30343;BME280;17145;49.902;8.680;2022-08-11T12:32:33;100400.02;;;36.66;16.18
30343;BME280;17145;49.902;8.680;2022-08-11T12:35:03;100391.91;;;36.72;15.65
30343;BME280;17145;49.902;8.680;2022-08-11T12:37:34;100381.76;;;36.78;15.82
30343;BME280;17145;49.902;8.680;2022-08-11T12:40:07;100377.41;;;36.96;16.31
30343;BME280;17145;49.902;8.680;2022-08-11T12:42:36;100373.41;;;37.23;15.88
30343;BME280;17145;49.902;8.680;2022-08-11T12:45:09;100379.19;;;37.45;15.88
30343;BME280;17145;49.902;8.680;2022-08-11T12:47:41;100369.60;;;37.65;15.28
30343;BME280;17145;49.902;8.680;2022-08-11T12:50:11;100363.47;;;37.81;14.64
30343;BME280;17145;49.902;8.680;2022-08-11T12:52:44;100372.70;;;37.92;14.46
30343;BME280;17145;49.902;8.680;2022-08-11T12:57:55;100373.76;;;38.07;14.22
30343;BME280;17145;49.902;8.680;2022-08-11T13:00:24;100365.94;;;38.14;14.45
30343;BME280;17145;49.902;8.680;2022-08-11T13:02:53;100363.30;;;38.19;13.99
30343;BME280;17145;49.902;8.680;2022-08-11T13:05:21;100359.39;;;38.22;14.52
30343;BME280;17145;49.902;8.680;2022-08-11T13:07:49;100355.77;;;38.29;14.62
30343;BME280;17145;49.902;8.680;2022-08-11T13:10:18;100355.32;;;38.21;14.43
30343;BME280;17145;49.902;8.680;2022-08-11T13:12:47;100344.12;;;38.24;14.31
30343;BME280;17145;49.902;8.680;2022-08-11T13:15:17;100352.81;;;38.40;14.12
30343;BME280;17145;49.902;8.680;2022-08-11T13:17:47;100354.83;;;38.46;13.89
30343;BME280;17145;49.902;8.680;2022-08-11T13:20:17;100350.29;;;38.51;13.66
30343;BME280;17145;49.902;8.680;2022-08-11T13:22:48;100345.24;;;38.61;14.13
30343;BME280;17145;49.902;8.680;2022-08-11T13:25:18;100351.95;;;38.80;14.49
30343;BME280;17145;49.902;8.680;2022-08-11T13:27:48;100340.94;;;38.95;13.63
30343;BME280;17145;49.902;8.680;2022-08-11T13:30:17;100339.95;;;39.14;13.46
30343;BME280;17145;49.902;8.680;2022-08-11T13:32:45;100333.28;;;39.38;13.78
30343;BME280;17145;49.902;8.680;2022-08-11T13:35:13;100329.79;;;39.55;14.49
30343;BME280;17145;49.902;8.680;2022-08-11T13:37:44;100323.76;;;39.76;13.93
30343;BME280;17145;49.902;8.680;2022-08-11T13:40:13;100325.91;;;39.89;13.18
30343;BME280;17145;49.902;8.680;2022-08-11T13:42:44;100320.39;;;39.99;13.01
30343;BME280;17145;49.902;8.680;2022-08-11T13:45:12;100308.99;;;40.08;12.56
30343;BME280;17145;49.902;8.680;2022-08-11T13:47:41;100313.40;;;40.19;13.35
30343;BME280;17145;49.902;8.680;2022-08-11T13:50:10;100313.71;;;40.26;12.82
30343;BME280;17145;49.902;8.680;2022-08-11T13:52:40;100308.56;;;40.38;12.94
30343;BME280;17145;49.902;8.680;2022-08-11T13:55:10;100309.27;;;40.07;11.62
30343;BME280;17145;49.902;8.680;2022-08-11T13:57:38;100299.48;;;40.13;11.88
30343;BME280;17145;49.902;8.680;2022-08-11T14:00:08;100293.00;;;40.20;12.14
30343;BME280;17145;49.902;8.680;2022-08-11T14:02:39;100301.20;;;40.31;11.74
30343;BME280;17145;49.902;8.680;2022-08-11T14:05:12;100289.73;;;40.46;11.62
30343;BME280;17145;49.902;8.680;2022-08-11T14:07:47;100288.80;;;40.60;11.54